Terminal Aerodrome Forecast
Issued by NWS

Home | Current Version | Previous Version | Text Only | Print | Product List | Glossary On
Versions: 1 2 3 4 5 6 7 8 9 10 11 12 13 14 15 16 17 18 19 20 21 22 23
000
FTUS43 KABR 051739
TAFATY
TAF
KATY 051739Z 0518/0618 21018G26KT P6SM SCT250
     FM052300 01008KT P6SM VCTS SCT050CB BKN080
     FM060400 36014KT P6SM OVC060
     FM060700 36011KT P6SM BKN060
     FM061600 36017KT P6SM SCT050=

USA.gov is the U.S. government's official web portal to all federal, state and local government web resources and services.